sensor_id;sensor_type;location;lat;lon;timestamp;P1;durP1;ratioP1;P2;durP2;ratioP2
13597;SDS011;38563;54.258;12.574;2023-08-01T00:01:15;0.10;;;0.10;;
13597;SDS011;38563;54.258;12.574;2023-08-01T00:03:42;0.00;;;0.00;;
13597;SDS011;38563;54.258;12.574;2023-08-01T00:06:10;0.03;;;0.03;;
13597;SDS011;38563;54.258;12.574;2023-08-01T00:08:37;0.10;;;0.10;;
13597;SDS011;38563;54.258;12.574;2023-08-01T00:11:04;0.20;;;0.20;;
13597;SDS011;38563;54.258;12.574;2023-08-01T00:13:30;0.10;;;0.10;;
13597;SDS011;38563;54.258;12.574;2023-08-01T00:15:57;0.10;;;0.10;;
13597;SDS011;38563;54.258;12.574;2023-08-01T00:18:24;0.10;;;0.10;;
13597;SDS011;38563;54.258;12.574;2023-08-01T00:20:51;0.20;;;0.20;;
13597;SDS011;38563;54.258;12.574;2023-08-01T00:23:20;0.00;;;0.00;;
13597;SDS011;38563;54.258;12.574;2023-08-01T00:25:46;0.10;;;0.10;;
13597;SDS011;38563;54.258;12.574;2023-08-01T00:28:16;0.20;;;0.20;;
13597;SDS011;38563;54.258;12.574;2023-08-01T00:30:43;0.00;;;0.00;;
13597;SDS011;38563;54.258;12.574;2023-08-01T00:33:10;0.10;;;0.10;;
13597;SDS011;38563;54.258;12.574;2023-08-01T00:35:36;0.00;;;0.00;;
13597;SDS011;38563;54.258;12.574;2023-08-01T00:38:03;0.10;;;0.10;;
13597;SDS011;38563;54.258;12.574;2023-08-01T00:40:31;0.10;;;0.10;;
13597;SDS011;38563;54.258;12.574;2023-08-01T00:42:59;0.10;;;0.10;;
13597;SDS011;38563;54.258;12.574;2023-08-01T00:45:26;0.07;;;0.07;;
13597;SDS011;38563;54.258;12.574;2023-08-01T00:47:54;0.10;;;0.10;;
13597;SDS011;38563;54.258;12.574;2023-08-01T00:50:21;0.10;;;0.10;;
13597;SDS011;38563;54.258;12.574;2023-08-01T00:52:49;0.10;;;0.10;;
13597;SDS011;38563;54.258;12.574;2023-08-01T00:55:17;0.00;;;0.00;;
13597;SDS011;38563;54.258;12.574;2023-08-01T00:57:45;0.03;;;0.03;;
13597;SDS011;38563;54.258;12.574;2023-08-01T01:00:13;0.00;;;0.00;;
13597;SDS011;38563;54.258;12.574;2023-08-01T01:02:40;0.00;;;0.00;;
13597;SDS011;38563;54.258;12.574;2023-08-01T01:05:07;0.10;;;0.10;;
13597;SDS011;38563;54.258;12.574;2023-08-01T01:07:59;0.10;;;0.10;;
13597;SDS011;38563;54.258;12.574;2023-08-01T01:10:28;0.10;;;0.10;;
13597;SDS011;38563;54.258;12.574;2023-08-01T01:12:56;0.10;;;0.10;;
13597;SDS011;38563;54.258;12.574;2023-08-01T01:15:23;0.10;;;0.10;;
13597;SDS011;38563;54.258;12.574;2023-08-01T01:17:50;0.10;;;0.10;;
13597;SDS011;38563;54.258;12.574;2023-08-01T01:20:20;0.10;;;0.10;;
13597;SDS011;38563;54.258;12.574;2023-08-01T01:22:50;0.10;;;0.10;;
13597;SDS011;38563;54.258;12.574;2023-08-01T01:25:18;0.00;;;0.00;;
13597;SDS011;38563;54.258;12.574;2023-08-01T01:27:46;0.00;;;0.00;;
13597;SDS011;38563;54.258;12.574;2023-08-01T01:30:14;0.10;;;0.10;;
13597;SDS011;38563;54.258;12.574;2023-08-01T01:32:41;0.10;;;0.10;;
13597;SDS011;38563;54.258;12.574;2023-08-01T01:35:08;0.00;;;0.00;;
13597;SDS011;38563;54.258;12.574;2023-08-01T01:37:35;0.10;;;0.10;;
13597;SDS011;38563;54.258;12.574;2023-08-01T01:40:04;0.10;;;0.10;;
13597;SDS011;38563;54.258;12.574;2023-08-01T01:42:31;0.10;;;0.10;;
13597;SDS011;38563;54.258;12.574;2023-08-01T01:44:58;0.00;;;0.00;;
13597;SDS011;38563;54.258;12.574;2023-08-01T01:47:25;0.10;;;0.10;;
13597;SDS011;38563;54.258;12.574;2023-08-01T01:49:51;0.10;;;0.10;;
13597;SDS011;38563;54.258;12.574;2023-08-01T01:52:18;0.10;;;0.10;;
13597;SDS011;38563;54.258;12.574;2023-08-01T01:54:45;0.10;;;0.10;;
13597;SDS011;38563;54.258;12.574;2023-08-01T01:57:13;0.10;;;0.10;;
13597;SDS011;38563;54.258;12.574;2023-08-01T01:59:40;0.10;;;0.10;;
13597;SDS011;38563;54.258;12.574;2023-08-01T02:02:06;0.10;;;0.10;;
13597;SDS011;38563;54.258;12.574;2023-08-01T02:04:33;0.10;;;0.10;;
13597;SDS011;38563;54.258;12.574;2023-08-01T02:07:00;0.10;;;0.10;;
13597;SDS011;38563;54.258;12.574;2023-08-01T02:09:28;0.10;;;0.10;;
13597;SDS011;38563;54.258;12.574;2023-08-01T02:11:55;0.10;;;0.10;;
13597;SDS011;38563;54.258;12.574;2023-08-01T02:14:23;0.10;;;0.10;;
13597;SDS011;38563;54.258;12.574;2023-08-01T02:16:50;0.10;;;0.10;;
13597;SDS011;38563;54.258;12.574;2023-08-01T02:19:17;0.10;;;0.10;;
13597;SDS011;38563;54.258;12.574;2023-08-01T02:21:43;0.10;;;0.10;;
13597;SDS011;38563;54.258;12.574;2023-08-01T02:24:10;0.10;;;0.10;;
13597;SDS011;38563;54.258;12.574;2023-08-01T02:26:37;0.10;;;0.10;;
13597;SDS011;38563;54.258;12.574;2023-08-01T02:29:04;0.10;;;0.10;;
13597;SDS011;38563;54.258;12.574;2023-08-01T02:31:32;0.00;;;0.00;;
13597;SDS011;38563;54.258;12.574;2023-08-01T02:33:58;0.10;;;0.10;;
13597;SDS011;38563;54.258;12.574;2023-08-01T02:36:25;0.10;;;0.10;;
13597;SDS011;38563;54.258;12.574;2023-08-01T02:38:52;0.10;;;0.10;;
13597;SDS011;38563;54.258;12.574;2023-08-01T02:41:19;0.10;;;0.10;;
13597;SDS011;38563;54.258;12.574;2023-08-01T02:43:44;0.10;;;0.10;;
13597;SDS011;38563;54.258;12.574;2023-08-01T02:46:11;0.10;;;0.10;;
13597;SDS011;38563;54.258;12.574;2023-08-01T02:48:39;0.10;;;0.10;;
13597;SDS011;38563;54.258;12.574;2023-08-01T02:51:06;0.10;;;0.10;;
13597;SDS011;38563;54.258;12.574;2023-08-01T02:53:34;0.10;;;0.10;;
13597;SDS011;38563;54.258;12.574;2023-08-01T02:56:01;0.10;;;0.10;;
13597;SDS011;38563;54.258;12.574;2023-08-01T02:58:28;0.10;;;0.10;;
13597;SDS011;38563;54.258;12.574;2023-08-01T03:00:55;0.10;;;0.10;;
13597;SDS011;38563;54.258;12.574;2023-08-01T03:03:21;0.10;;;0.10;;
13597;SDS011;38563;54.258;12.574;2023-08-01T03:05:49;0.20;;;0.20;;
13597;SDS011;38563;54.258;12.574;2023-08-01T03:08:18;0.10;;;0.10;;
13597;SDS011;38563;54.258;12.574;2023-08-01T03:10:45;0.10;;;0.10;;
13597;SDS011;38563;54.258;12.574;2023-08-01T03:13:12;0.10;;;0.10;;
13597;SDS011;38563;54.258;12.574;2023-08-01T03:15:39;0.10;;;0.10;;
13597;SDS011;38563;54.258;12.574;2023-08-01T03:18:05;0.20;;;0.20;;
13597;SDS011;38563;54.258;12.574;2023-08-01T03:20:33;0.10;;;0.10;;
13597;SDS011;38563;54.258;12.574;2023-08-01T03:23:01;0.10;;;0.10;;
13597;SDS011;38563;54.258;12.574;2023-08-01T03:25:28;0.10;;;0.10;;
13597;SDS011;38563;54.258;12.574;2023-08-01T03:27:56;0.10;;;0.10;;
13597;SDS011;38563;54.258;12.574;2023-08-01T03:30:23;0.10;;;0.10;;
13597;SDS011;38563;54.258;12.574;2023-08-01T03:32:49;0.10;;;0.10;;
13597;SDS011;38563;54.258;12.574;2023-08-01T03:35:17;0.10;;;0.10;;
13597;SDS011;38563;54.258;12.574;2023-08-01T03:37:44;0.10;;;0.10;;
13597;SDS011;38563;54.258;12.574;2023-08-01T03:40:12;0.20;;;0.20;;
13597;SDS011;38563;54.258;12.574;2023-08-01T03:42:39;0.10;;;0.10;;
13597;SDS011;38563;54.258;12.574;2023-08-01T03:45:07;0.10;;;0.10;;
13597;SDS011;38563;54.258;12.574;2023-08-01T03:47:35;0.10;;;0.10;;
13597;SDS011;38563;54.258;12.574;2023-08-01T03:50:02;0.20;;;0.20;;
13597;SDS011;38563;54.258;12.574;2023-08-01T03:52:29;0.13;;;0.13;;
13597;SDS011;38563;54.258;12.574;2023-08-01T03:54:55;0.10;;;0.10;;
13597;SDS011;38563;54.258;12.574;2023-08-01T03:57:24;0.10;;;0.10;;
13597;SDS011;38563;54.258;12.574;2023-08-01T03:59:50;0.10;;;0.10;;
13597;SDS011;38563;54.258;12.574;2023-08-01T04:02:17;0.10;;;0.10;;
13597;SDS011;38563;54.258;12.574;2023-08-01T04:04:44;0.10;;;0.10;;
13597;SDS011;38563;54.258;12.574;2023-08-01T04:07:11;0.10;;;0.10;;
13597;SDS011;38563;54.258;12.574;2023-08-01T04:09:38;0.10;;;0.10;;
13597;SDS011;38563;54.258;12.574;2023-08-01T04:12:05;0.00;;;0.00;;
13597;SDS011;38563;54.258;12.574;2023-08-01T04:14:33;0.00;;;0.00;;
13597;SDS011;38563;54.258;12.574;2023-08-01T04:17:00;0.10;;;0.10;;
13597;SDS011;38563;54.258;12.574;2023-08-01T04:19:27;0.10;;;0.10;;
13597;SDS011;38563;54.258;12.574;2023-08-01T04:21:53;0.10;;;0.10;;
13597;SDS011;38563;54.258;12.574;2023-08-01T04:24:20;0.10;;;0.10;;
13597;SDS011;38563;54.258;12.574;2023-08-01T04:26:50;0.10;;;0.10;;
13597;SDS011;38563;54.258;12.574;2023-08-01T04:29:16;0.10;;;0.10;;
13597;SDS011;38563;54.258;12.574;2023-08-01T04:31:45;0.10;;;0.10;;
13597;SDS011;38563;54.258;12.574;2023-08-01T04:34:11;0.10;;;0.10;;
13597;SDS011;38563;54.258;12.574;2023-08-01T04:36:38;0.10;;;0.10;;
13597;SDS011;38563;54.258;12.574;2023-08-01T04:39:05;0.10;;;0.10;;
13597;SDS011;38563;54.258;12.574;2023-08-01T04:41:31;0.10;;;0.10;;
13597;SDS011;38563;54.258;12.574;2023-08-01T04:43:58;0.10;;;0.10;;
13597;SDS011;38563;54.258;12.574;2023-08-01T04:46:25;0.10;;;0.10;;
13597;SDS011;38563;54.258;12.574;2023-08-01T04:48:53;0.10;;;0.10;;
13597;SDS011;38563;54.258;12.574;2023-08-01T04:51:19;0.10;;;0.10;;
13597;SDS011;38563;54.258;12.574;2023-08-01T04:53:46;0.13;;;0.13;;
13597;SDS011;38563;54.258;12.574;2023-08-01T04:56:13;0.10;;;0.10;;
13597;SDS011;38563;54.258;12.574;2023-08-01T04:58:40;0.20;;;0.20;;
13597;SDS011;38563;54.258;12.574;2023-08-01T05:01:06;0.20;;;0.20;;
13597;SDS011;38563;54.258;12.574;2023-08-01T05:03:33;0.10;;;0.10;;
13597;SDS011;38563;54.258;12.574;2023-08-01T05:06:01;0.20;;;0.20;;
13597;SDS011;38563;54.258;12.574;2023-08-01T05:08:28;0.10;;;0.10;;
13597;SDS011;38563;54.258;12.574;2023-08-01T05:10:54;0.10;;;0.10;;
13597;SDS011;38563;54.258;12.574;2023-08-01T05:13:21;0.10;;;0.10;;
13597;SDS011;38563;54.258;12.574;2023-08-01T05:15:48;0.00;;;0.00;;
13597;SDS011;38563;54.258;12.574;2023-08-01T05:18:15;0.10;;;0.10;;
13597;SDS011;38563;54.258;12.574;2023-08-01T05:20:42;0.10;;;0.10;;
13597;SDS011;38563;54.258;12.574;2023-08-01T05:23:10;0.10;;;0.10;;
13597;SDS011;38563;54.258;12.574;2023-08-01T05:25:37;0.10;;;0.10;;
13597;SDS011;38563;54.258;12.574;2023-08-01T05:28:04;0.10;;;0.10;;
13597;SDS011;38563;54.258;12.574;2023-08-01T05:30:30;0.10;;;0.10;;
13597;SDS011;38563;54.258;12.574;2023-08-01T05:32:57;0.10;;;0.10;;
13597;SDS011;38563;54.258;12.574;2023-08-01T05:35:24;0.10;;;0.10;;
13597;SDS011;38563;54.258;12.574;2023-08-01T05:37:50;0.10;;;0.10;;
13597;SDS011;38563;54.258;12.574;2023-08-01T05:40:18;0.10;;;0.10;;
13597;SDS011;38563;54.258;12.574;2023-08-01T05:42:45;0.00;;;0.00;;
13597;SDS011;38563;54.258;12.574;2023-08-01T05:45:12;0.07;;;0.07;;
13597;SDS011;38563;54.258;12.574;2023-08-01T05:47:38;0.00;;;0.00;;
13597;SDS011;38563;54.258;12.574;2023-08-01T05:50:05;0.00;;;0.00;;
13597;SDS011;38563;54.258;12.574;2023-08-01T05:52:33;0.00;;;0.00;;
13597;SDS011;38563;54.258;12.574;2023-08-01T05:54:59;0.00;;;0.00;;
13597;SDS011;38563;54.258;12.574;2023-08-01T05:57:27;0.10;;;0.10;;
13597;SDS011;38563;54.258;12.574;2023-08-01T05:59:55;0.00;;;0.00;;
13597;SDS011;38563;54.258;12.574;2023-08-01T06:02:22;0.00;;;0.00;;
13597;SDS011;38563;54.258;12.574;2023-08-01T06:04:49;0.00;;;0.00;;
13597;SDS011;38563;54.258;12.574;2023-08-01T06:07:15;0.00;;;0.00;;
13597;SDS011;38563;54.258;12.574;2023-08-01T06:09:47;0.10;;;0.10;;
13597;SDS011;38563;54.258;12.574;2023-08-01T06:12:15;0.10;;;0.10;;
13597;SDS011;38563;54.258;12.574;2023-08-01T06:14:43;0.10;;;0.10;;
13597;SDS011;38563;54.258;12.574;2023-08-01T06:17:10;0.10;;;0.10;;
13597;SDS011;38563;54.258;12.574;2023-08-01T06:19:37;0.10;;;0.10;;
13597;SDS011;38563;54.258;12.574;2023-08-01T06:22:04;0.00;;;0.00;;
13597;SDS011;38563;54.258;12.574;2023-08-01T06:24:31;0.10;;;0.10;;
13597;SDS011;38563;54.258;12.574;2023-08-01T06:26:58;0.10;;;0.10;;
13597;SDS011;38563;54.258;12.574;2023-08-01T06:29:24;0.00;;;0.00;;
13597;SDS011;38563;54.258;12.574;2023-08-01T06:31:52;0.00;;;0.00;;
13597;SDS011;38563;54.258;12.574;2023-08-01T06:34:19;0.20;;;0.20;;
13597;SDS011;38563;54.258;12.574;2023-08-01T06:36:46;0.10;;;0.10;;
13597;SDS011;38563;54.258;12.574;2023-08-01T06:39:13;0.10;;;0.10;;
13597;SDS011;38563;54.258;12.574;2023-08-01T06:41:40;0.10;;;0.10;;
13597;SDS011;38563;54.258;12.574;2023-08-01T06:44:06;0.10;;;0.10;;
13597;SDS011;38563;54.258;12.574;2023-08-01T06:46:33;0.10;;;0.10;;
13597;SDS011;38563;54.258;12.574;2023-08-01T06:49:01;0.10;;;0.10;;
13597;SDS011;38563;54.258;12.574;2023-08-01T06:51:28;0.10;;;0.10;;
13597;SDS011;38563;54.258;12.574;2023-08-01T06:53:55;0.10;;;0.10;;
13597;SDS011;38563;54.258;12.574;2023-08-01T06:56:21;0.10;;;0.10;;
13597;SDS011;38563;54.258;12.574;2023-08-01T06:58:48;0.13;;;0.13;;
13597;SDS011;38563;54.258;12.574;2023-08-01T07:01:15;0.10;;;0.10;;
13597;SDS011;38563;54.258;12.574;2023-08-01T07:03:42;0.20;;;0.20;;
13597;SDS011;38563;54.258;12.574;2023-08-01T07:06:10;0.17;;;0.17;;
13597;SDS011;38563;54.258;12.574;2023-08-01T07:08:36;0.10;;;0.10;;
13597;SDS011;38563;54.258;12.574;2023-08-01T07:11:03;0.10;;;0.10;;
13597;SDS011;38563;54.258;12.574;2023-08-01T07:13:30;0.30;;;0.30;;
13597;SDS011;38563;54.258;12.574;2023-08-01T07:15:56;0.23;;;0.23;;
13597;SDS011;38563;54.258;12.574;2023-08-01T07:18:23;0.20;;;0.20;;
13597;SDS011;38563;54.258;12.574;2023-08-01T07:20:58;0.10;;;0.10;;
13597;SDS011;38563;54.258;12.574;2023-08-01T07:23:27;0.10;;;0.10;;
13597;SDS011;38563;54.258;12.574;2023-08-01T07:25:54;0.10;;;0.10;;
13597;SDS011;38563;54.258;12.574;2023-08-01T07:28:20;0.10;;;0.10;;
13597;SDS011;38563;54.258;12.574;2023-08-01T07:30:47;0.30;;;0.30;;
13597;SDS011;38563;54.258;12.574;2023-08-01T07:33:14;0.10;;;0.10;;
13597;SDS011;38563;54.258;12.574;2023-08-01T07:35:41;0.10;;;0.10;;
13597;SDS011;38563;54.258;12.574;2023-08-01T07:38:07;0.13;;;0.13;;
13597;SDS011;38563;54.258;12.574;2023-08-01T07:40:37;0.20;;;0.20;;
13597;SDS011;38563;54.258;12.574;2023-08-01T07:43:03;0.20;;;0.20;;
13597;SDS011;38563;54.258;12.574;2023-08-01T07:45:32;0.20;;;0.20;;
13597;SDS011;38563;54.258;12.574;2023-08-01T07:47:59;0.20;;;0.20;;
13597;SDS011;38563;54.258;12.574;2023-08-01T07:50:26;0.20;;;0.20;;
13597;SDS011;38563;54.258;12.574;2023-08-01T07:52:53;0.10;;;0.10;;
13597;SDS011;38563;54.258;12.574;2023-08-01T07:55:19;0.20;;;0.20;;
13597;SDS011;38563;54.258;12.574;2023-08-01T07:57:47;0.20;;;0.20;;
13597;SDS011;38563;54.258;12.574;2023-08-01T08:00:14;0.20;;;0.20;;
13597;SDS011;38563;54.258;12.574;2023-08-01T08:02:41;0.10;;;0.10;;
13597;SDS011;38563;54.258;12.574;2023-08-01T08:05:09;0.20;;;0.20;;
13597;SDS011;38563;54.258;12.574;2023-08-01T08:07:36;0.20;;;0.20;;
13597;SDS011;38563;54.258;12.574;2023-08-01T08:10:03;0.40;;;0.40;;
13597;SDS011;38563;54.258;12.574;2023-08-01T08:12:31;0.20;;;0.20;;
13597;SDS011;38563;54.258;12.574;2023-08-01T08:14:59;0.30;;;0.30;;
13597;SDS011;38563;54.258;12.574;2023-08-01T08:17:25;0.27;;;0.27;;
13597;SDS011;38563;54.258;12.574;2023-08-01T08:19:52;0.20;;;0.20;;
13597;SDS011;38563;54.258;12.574;2023-08-01T08:22:19;0.40;;;0.40;;
13597;SDS011;38563;54.258;12.574;2023-08-01T08:24:45;0.30;;;0.30;;
13597;SDS011;38563;54.258;12.574;2023-08-01T08:27:12;0.20;;;0.20;;
13597;SDS011;38563;54.258;12.574;2023-08-01T08:37:46;0.20;;;0.20;;
13597;SDS011;38563;54.258;12.574;2023-08-01T08:40:13;0.20;;;0.20;;
13597;SDS011;38563;54.258;12.574;2023-08-01T08:42:40;0.20;;;0.20;;
13597;SDS011;38563;54.258;12.574;2023-08-01T08:45:07;0.30;;;0.30;;
13597;SDS011;38563;54.258;12.574;2023-08-01T08:47:35;0.20;;;0.20;;
13597;SDS011;38563;54.258;12.574;2023-08-01T08:50:04;0.23;;;0.23;;
13597;SDS011;38563;54.258;12.574;2023-08-01T08:52:32;0.20;;;0.20;;
13597;SDS011;38563;54.258;12.574;2023-08-01T08:55:00;0.20;;;0.20;;
13597;SDS011;38563;54.258;12.574;2023-08-01T08:57:28;0.20;;;0.20;;
13597;SDS011;38563;54.258;12.574;2023-08-01T08:59:56;0.20;;;0.20;;
13597;SDS011;38563;54.258;12.574;2023-08-01T09:02:23;0.20;;;0.20;;
13597;SDS011;38563;54.258;12.574;2023-08-01T09:04:50;0.20;;;0.20;;
13597;SDS011;38563;54.258;12.574;2023-08-01T09:07:17;0.17;;;0.17;;
13597;SDS011;38563;54.258;12.574;2023-08-01T09:09:49;0.10;;;0.10;;
13597;SDS011;38563;54.258;12.574;2023-08-01T09:12:17;0.20;;;0.20;;
13597;SDS011;38563;54.258;12.574;2023-08-01T09:14:44;0.10;;;0.10;;
13597;SDS011;38563;54.258;12.574;2023-08-01T09:17:12;0.10;;;0.10;;
13597;SDS011;38563;54.258;12.574;2023-08-01T09:19:41;0.20;;;0.20;;
13597;SDS011;38563;54.258;12.574;2023-08-01T09:22:11;0.10;;;0.10;;
13597;SDS011;38563;54.258;12.574;2023-08-01T09:24:38;0.10;;;0.10;;
13597;SDS011;38563;54.258;12.574;2023-08-01T09:27:05;0.10;;;0.10;;
13597;SDS011;38563;54.258;12.574;2023-08-01T09:29:34;0.10;;;0.10;;
13597;SDS011;38563;54.258;12.574;2023-08-01T09:32:11;0.17;;;0.17;;
13597;SDS011;38563;54.258;12.574;2023-08-01T09:34:39;0.20;;;0.20;;
13597;SDS011;38563;54.258;12.574;2023-08-01T09:37:06;0.10;;;0.10;;
13597;SDS011;38563;54.258;12.574;2023-08-01T09:39:33;0.10;;;0.10;;
13597;SDS011;38563;54.258;12.574;2023-08-01T09:42:00;0.10;;;0.10;;
13597;SDS011;38563;54.258;12.574;2023-08-01T09:44:28;0.00;;;0.00;;
13597;SDS011;38563;54.258;12.574;2023-08-01T09:46:57;0.10;;;0.10;;
13597;SDS011;38563;54.258;12.574;2023-08-01T09:49:26;0.00;;;0.00;;
13597;SDS011;38563;54.258;12.574;2023-08-01T09:51:53;0.00;;;0.00;;
13597;SDS011;38563;54.258;12.574;2023-08-01T09:54:20;0.00;;;0.00;;
13597;SDS011;38563;54.258;12.574;2023-08-01T09:56:47;0.10;;;0.10;;
13597;SDS011;38563;54.258;12.574;2023-08-01T09:59:16;0.10;;;0.10;;
13597;SDS011;38563;54.258;12.574;2023-08-01T10:01:46;0.10;;;0.10;;
13597;SDS011;38563;54.258;12.574;2023-08-01T10:04:16;0.00;;;0.00;;
13597;SDS011;38563;54.258;12.574;2023-08-01T10:06:46;0.20;;;0.20;;
13597;SDS011;38563;54.258;12.574;2023-08-01T10:09:15;0.10;;;0.10;;
13597;SDS011;38563;54.258;12.574;2023-08-01T10:11:43;0.10;;;0.10;;
13597;SDS011;38563;54.258;12.574;2023-08-01T10:14:11;0.10;;;0.10;;
13597;SDS011;38563;54.258;12.574;2023-08-01T10:16:38;0.17;;;0.17;;
13597;SDS011;38563;54.258;12.574;2023-08-01T10:19:05;0.30;;;0.30;;
13597;SDS011;38563;54.258;12.574;2023-08-01T10:21:34;0.20;;;0.20;;
13597;SDS011;38563;54.258;12.574;2023-08-01T10:24:02;0.20;;;0.20;;
13597;SDS011;38563;54.258;12.574;2023-08-01T10:26:31;0.23;;;0.23;;
13597;SDS011;38563;54.258;12.574;2023-08-01T10:28:58;0.20;;;0.20;;
13597;SDS011;38563;54.258;12.574;2023-08-01T10:31:26;0.20;;;0.20;;
13597;SDS011;38563;54.258;12.574;2023-08-01T10:34:02;0.20;;;0.20;;
13597;SDS011;38563;54.258;12.574;2023-08-01T10:36:30;0.30;;;0.30;;
13597;SDS011;38563;54.258;12.574;2023-08-01T10:38:59;0.20;;;0.20;;
13597;SDS011;38563;54.258;12.574;2023-08-01T10:41:27;0.20;;;0.20;;
13597;SDS011;38563;54.258;12.574;2023-08-01T10:44:05;0.30;;;0.30;;
13597;SDS011;38563;54.258;12.574;2023-08-01T10:46:46;0.40;;;0.40;;
13597;SDS011;38563;54.258;12.574;2023-08-01T10:49:14;0.30;;;0.30;;
13597;SDS011;38563;54.258;12.574;2023-08-01T10:51:41;0.30;;;0.30;;
13597;SDS011;38563;54.258;12.574;2023-08-01T10:54:19;0.30;;;0.30;;
13597;SDS011;38563;54.258;12.574;2023-08-01T10:56:47;0.40;;;0.40;;
13597;SDS011;38563;54.258;12.574;2023-08-01T10:59:15;0.50;;;0.50;;
13597;SDS011;38563;54.258;12.574;2023-08-01T11:01:43;0.30;;;0.30;;
13597;SDS011;38563;54.258;12.574;2023-08-01T11:04:14;0.20;;;0.20;;
13597;SDS011;38563;54.258;12.574;2023-08-01T11:06:43;0.23;;;0.23;;
13597;SDS011;38563;54.258;12.574;2023-08-01T11:09:19;0.23;;;0.23;;
13597;SDS011;38563;54.258;12.574;2023-08-01T11:11:47;0.10;;;0.10;;
13597;SDS011;38563;54.258;12.574;2023-08-01T11:14:16;0.10;;;0.10;;
13597;SDS011;38563;54.258;12.574;2023-08-01T11:16:45;0.10;;;0.10;;
13597;SDS011;38563;54.258;12.574;2023-08-01T11:19:19;0.10;;;0.10;;
13597;SDS011;38563;54.258;12.574;2023-08-01T11:21:47;0.20;;;0.20;;
13597;SDS011;38563;54.258;12.574;2023-08-01T11:24:13;0.10;;;0.10;;
13597;SDS011;38563;54.258;12.574;2023-08-01T11:26:46;0.10;;;0.10;;
13597;SDS011;38563;54.258;12.574;2023-08-01T11:29:14;0.13;;;0.13;;
13597;SDS011;38563;54.258;12.574;2023-08-01T11:31:51;0.10;;;0.10;;
13597;SDS011;38563;54.258;12.574;2023-08-01T11:34:19;0.10;;;0.10;;
13597;SDS011;38563;54.258;12.574;2023-08-01T11:36:45;0.20;;;0.20;;
13597;SDS011;38563;54.258;12.574;2023-08-01T11:39:12;0.20;;;0.20;;
13597;SDS011;38563;54.258;12.574;2023-08-01T11:41:41;0.10;;;0.10;;
13597;SDS011;38563;54.258;12.574;2023-08-01T11:44:09;0.10;;;0.10;;
13597;SDS011;38563;54.258;12.574;2023-08-01T11:46:37;0.10;;;0.10;;
13597;SDS011;38563;54.258;12.574;2023-08-01T11:49:06;0.10;;;0.10;;
13597;SDS011;38563;54.258;12.574;2023-08-01T11:51:38;0.10;;;0.10;;
13597;SDS011;38563;54.258;12.574;2023-08-01T11:54:05;0.10;;;0.10;;
13597;SDS011;38563;54.258;12.574;2023-08-01T11:56:32;0.10;;;0.10;;
13597;SDS011;38563;54.258;12.574;2023-08-01T11:58:59;0.20;;;0.20;;
13597;SDS011;38563;54.258;12.574;2023-08-01T12:01:39;0.20;;;0.20;;
13597;SDS011;38563;54.258;12.574;2023-08-01T12:04:06;0.30;;;0.30;;
13597;SDS011;38563;54.258;12.574;2023-08-01T12:06:33;0.20;;;0.20;;
13597;SDS011;38563;54.258;12.574;2023-08-01T12:09:05;0.13;;;0.13;;
13597;SDS011;38563;54.258;12.574;2023-08-01T12:11:34;0.20;;;0.20;;
13597;SDS011;38563;54.258;12.574;2023-08-01T12:14:02;0.30;;;0.30;;
13597;SDS011;38563;54.258;12.574;2023-08-01T12:16:31;0.20;;;0.20;;
13597;SDS011;38563;54.258;12.574;2023-08-01T12:18:58;0.30;;;0.30;;
13597;SDS011;38563;54.258;12.574;2023-08-01T12:21:24;0.20;;;0.20;;
13597;SDS011;38563;54.258;12.574;2023-08-01T12:23:51;0.30;;;0.30;;
13597;SDS011;38563;54.258;12.574;2023-08-01T12:26:18;0.20;;;0.20;;
13597;SDS011;38563;54.258;12.574;2023-08-01T12:28:44;0.50;;;0.50;;
13597;SDS011;38563;54.258;12.574;2023-08-01T12:31:15;0.20;;;0.20;;
13597;SDS011;38563;54.258;12.574;2023-08-01T12:33:43;0.20;;;0.20;;
13597;SDS011;38563;54.258;12.574;2023-08-01T12:36:11;0.30;;;0.30;;
13597;SDS011;38563;54.258;12.574;2023-08-01T12:38:38;0.30;;;0.30;;
13597;SDS011;38563;54.258;12.574;2023-08-01T12:41:05;0.20;;;0.20;;
13597;SDS011;38563;54.258;12.574;2023-08-01T12:43:32;0.30;;;0.30;;
13597;SDS011;38563;54.258;12.574;2023-08-01T12:45:59;0.40;;;0.40;;
13597;SDS011;38563;54.258;12.574;2023-08-01T12:48:26;0.40;;;0.40;;
13597;SDS011;38563;54.258;12.574;2023-08-01T12:50:54;0.40;;;0.40;;
13597;SDS011;38563;54.258;12.574;2023-08-01T12:53:21;0.30;;;0.30;;
13597;SDS011;38563;54.258;12.574;2023-08-01T12:55:52;0.40;;;0.40;;
13597;SDS011;38563;54.258;12.574;2023-08-01T12:58:18;0.37;;;0.37;;
13597;SDS011;38563;54.258;12.574;2023-08-01T13:00:45;0.30;;;0.30;;
13597;SDS011;38563;54.258;12.574;2023-08-01T13:03:12;0.30;;;0.30;;
13597;SDS011;38563;54.258;12.574;2023-08-01T13:05:39;0.30;;;0.30;;
13597;SDS011;38563;54.258;12.574;2023-08-01T13:08:08;0.30;;;0.30;;
13597;SDS011;38563;54.258;12.574;2023-08-01T13:10:36;0.30;;;0.30;;
13597;SDS011;38563;54.258;12.574;2023-08-01T13:13:04;0.40;;;0.40;;
13597;SDS011;38563;54.258;12.574;2023-08-01T13:15:30;0.30;;;0.30;;
13597;SDS011;38563;54.258;12.574;2023-08-01T13:17:57;0.30;;;0.30;;
13597;SDS011;38563;54.258;12.574;2023-08-01T13:20:24;0.30;;;0.30;;
13597;SDS011;38563;54.258;12.574;2023-08-01T13:22:51;0.50;;;0.50;;
13597;SDS011;38563;54.258;12.574;2023-08-01T13:25:19;0.30;;;0.30;;
13597;SDS011;38563;54.258;12.574;2023-08-01T13:27:46;0.30;;;0.30;;
13597;SDS011;38563;54.258;12.574;2023-08-01T13:30:12;0.30;;;0.30;;
13597;SDS011;38563;54.258;12.574;2023-08-01T13:32:42;0.30;;;0.30;;
13597;SDS011;38563;54.258;12.574;2023-08-01T13:35:09;0.20;;;0.20;;
13597;SDS011;38563;54.258;12.574;2023-08-01T13:37:36;0.20;;;0.20;;
13597;SDS011;38563;54.258;12.574;2023-08-01T13:40:03;0.10;;;0.10;;
13597;SDS011;38563;54.258;12.574;2023-08-01T13:42:32;0.20;;;0.20;;
13597;SDS011;38563;54.258;12.574;2023-08-01T13:44:59;0.10;;;0.10;;
13597;SDS011;38563;54.258;12.574;2023-08-01T13:47:26;0.10;;;0.10;;
13597;SDS011;38563;54.258;12.574;2023-08-01T13:49:52;0.10;;;0.10;;
13597;SDS011;38563;54.258;12.574;2023-08-01T13:52:19;0.00;;;0.00;;
13597;SDS011;38563;54.258;12.574;2023-08-01T13:54:46;0.00;;;0.00;;
13597;SDS011;38563;54.258;12.574;2023-08-01T13:57:13;0.00;;;0.00;;
13597;SDS011;38563;54.258;12.574;2023-08-01T13:59:41;0.10;;;0.10;;
13597;SDS011;38563;54.258;12.574;2023-08-01T14:02:08;0.10;;;0.10;;
13597;SDS011;38563;54.258;12.574;2023-08-01T14:04:34;0.03;;;0.03;;
13597;SDS011;38563;54.258;12.574;2023-08-01T14:07:01;0.00;;;0.00;;
13597;SDS011;38563;54.258;12.574;2023-08-01T14:09:28;0.00;;;0.00;;
13597;SDS011;38563;54.258;12.574;2023-08-01T14:11:57;0.00;;;0.00;;
13597;SDS011;38563;54.258;12.574;2023-08-01T14:14:24;0.07;;;0.07;;
13597;SDS011;38563;54.258;12.574;2023-08-01T14:16:52;0.00;;;0.00;;
13597;SDS011;38563;54.258;12.574;2023-08-01T14:19:20;0.00;;;0.00;;
13597;SDS011;38563;54.258;12.574;2023-08-01T14:21:46;0.00;;;0.00;;
13597;SDS011;38563;54.258;12.574;2023-08-01T14:24:13;0.00;;;0.00;;
13597;SDS011;38563;54.258;12.574;2023-08-01T14:26:40;0.07;;;0.07;;
13597;SDS011;38563;54.258;12.574;2023-08-01T14:42:37;0.10;;;0.10;;
13597;SDS011;38563;54.258;12.574;2023-08-01T14:45:05;0.10;;;0.10;;
13597;SDS011;38563;54.258;12.574;2023-08-01T14:47:32;0.10;;;0.10;;
13597;SDS011;38563;54.258;12.574;2023-08-01T14:49:59;0.10;;;0.10;;
13597;SDS011;38563;54.258;12.574;2023-08-01T14:52:26;0.10;;;0.10;;
13597;SDS011;38563;54.258;12.574;2023-08-01T14:54:53;0.10;;;0.10;;
13597;SDS011;38563;54.258;12.574;2023-08-01T14:57:19;0.10;;;0.10;;